Time;durP1;ratioP1;P1;durP2;ratioP2;P2;SDS_P1;SDS_P2;PMS_P1;PMS_P2;Temp;Humidity;BMP_temperature;BMP_pressure;BME280_temperature;BME280_humidity;BME280_pressure;Samples;Min_cycle;Max_cycle;Signal;HPM_P1;HPM_P2
2022/07/23 00:02:15;;;;;;;6.45;2.70;;;;;;;;;;5054851;28;20041;-80
2022/07/23 00:05:00;;;;;;;4.43;2.83;;;;;;;;;;5055264;28;20045;-79
2022/07/23 00:07:46;;;;;;;3.50;2.58;;;;;;;;;;5055108;28;20041;-79
2022/07/23 00:10:32;;;;;;;8.15;2.63;;;;;;;;;;5054894;28;20045;-79
2022/07/23 00:13:17;;;;;;;5.65;2.60;;;;;;;;;;5054956;28;20049;-80
2022/07/23 00:16:03;;;;;;;6.03;2.50;;;;;;;;;;5054753;28;20056;-80
2022/07/23 00:18:48;;;;;;;4.85;2.47;;;;;;;;;;5054829;28;20053;-80
2022/07/23 00:21:34;;;;;;;5.22;2.78;;;;;;;;;;5054842;28;20037;-80
2022/07/23 00:24:19;;;;;;;3.97;2.72;;;;;;;;;;5054452;28;20045;-79
2022/07/23 00:27:05;;;;;;;3.65;2.60;;;;;;;;;;5054940;28;20063;-78
2022/07/23 00:29:50;;;;;;;10.07;2.85;;;;;;;;;;5054921;28;20045;-80
2022/07/23 00:32:50;;;;;;;4.70;2.70;;;;;;;;;;5054834;28;20049;-80
2022/07/23 00:35:40;;;;;;;6.40;3.13;;;;;;;;;;5046632;28;20045;-80
2022/07/23 00:38:25;;;;;;;3.95;2.47;;;;;;;;;;5046051;28;20494;-80
2022/07/23 00:41:10;;;;;;;6.30;2.33;;;;;;;;;;5046127;28;20045;-80
2022/07/23 00:44:19;;;;;;;3.97;2.53;;;;;;;;;;5054193;28;20486;-80
2022/07/23 00:47:06;;;;;;;5.47;3.00;;;;;;;;;;5047589;28;20060;-79
2022/07/23 00:49:52;;;;;;;5.18;2.50;;;;;;;;;;5076731;28;20045;-79
2022/07/23 00:52:38;;;;;;;5.30;2.85;;;;;;;;;;5047190;28;20053;-79
2022/07/23 00:55:24;;;;;;;4.05;2.72;;;;;;;;;;5061088;28;20049;-80
2022/07/23 00:58:09;;;;;;;6.15;2.83;;;;;;;;;;5054073;28;20490;-79
2022/07/23 01:00:55;;;;;;;6.85;3.30;;;;;;;;;;5045738;28;20037;-79
2022/07/23 01:03:40;;;;;;;3.80;2.55;;;;;;;;;;5053648;28;20052;-79
2022/07/23 01:06:26;;;;;;;10.48;2.95;;;;;;;;;;5031721;28;20061;-79
2022/07/23 01:09:12;;;;;;;4.22;2.60;;;;;;;;;;5046291;28;20044;-80
2022/07/23 01:11:59;;;;;;;4.25;2.72;;;;;;;;;;5054136;28;20037;-79
2022/07/23 01:14:45;;;;;;;5.85;3.50;;;;;;;;;;5054250;28;20041;-79
2022/07/23 01:17:30;;;;;;;6.35;3.58;;;;;;;;;;5045645;28;20037;-79
2022/07/23 01:20:17;;;;;;;10.10;4.00;;;;;;;;;;5045665;28;20358;-79
2022/07/23 01:23:02;;;;;;;9.52;3.90;;;;;;;;;;5045660;28;20405;-79
2022/07/23 01:25:57;;;;;;;9.38;3.05;;;;;;;;;;5045173;28;20115;-79
2022/07/23 01:28:43;;;;;;;4.35;2.95;;;;;;;;;;5049517;28;20465;-79
2022/07/23 01:31:30;;;;;;;4.70;3.13;;;;;;;;;;5058128;28;20049;-79
2022/07/23 01:34:15;;;;;;;3.92;2.70;;;;;;;;;;5049693;28;20040;-79
2022/07/23 01:37:00;;;;;;;6.07;2.70;;;;;;;;;;5049883;28;20052;-79
2022/07/23 01:39:46;;;;;;;3.72;2.70;;;;;;;;;;5049474;28;20037;-79
2022/07/23 01:42:33;;;;;;;6.85;2.58;;;;;;;;;;5049282;28;20041;-79
2022/07/23 01:45:19;;;;;;;3.95;2.78;;;;;;;;;;5049506;28;20045;-80
2022/07/23 01:48:09;;;;;;;5.57;2.42;;;;;;;;;;5049290;28;20045;-79
2022/07/23 01:50:54;;;;;;;5.70;2.60;;;;;;;;;;5045529;28;20037;-80
2022/07/23 01:53:50;;;;;;;3.95;2.67;;;;;;;;;;5053779;28;20394;-80
2022/07/23 01:56:35;;;;;;;4.28;2.33;;;;;;;;;;5060396;28;20482;-80
2022/07/23 01:59:21;;;;;;;5.18;3.47;;;;;;;;;;5047108;28;20037;-78
2022/07/23 02:02:08;;;;;;;7.72;3.28;;;;;;;;;;5045382;28;20040;-80
2022/07/23 02:04:53;;;;;;;7.07;3.13;;;;;;;;;;5053942;28;20042;-79
2022/07/23 02:07:45;;;;;;;7.68;3.30;;;;;;;;;;5060382;28;20063;-79
2022/07/23 02:10:30;;;;;;;7.13;4.15;;;;;;;;;;5045453;28;20041;-79
2022/07/23 02:13:16;;;;;;;21.02;12.93;;;;;;;;;;5053397;28;20045;-80
2022/07/23 02:16:01;;;;;;;12.05;7.35;;;;;;;;;;5048699;28;20486;-79
2022/07/23 02:18:48;;;;;;;10.30;5.30;;;;;;;;;;5049110;28;20049;-79
2022/07/23 02:21:34;;;;;;;7.53;5.07;;;;;;;;;;5049156;28;20048;-79
2022/07/23 02:24:20;;;;;;;10.77;4.47;;;;;;;;;;5057309;28;20048;-77
2022/07/23 02:27:05;;;;;;;5.88;4.38;;;;;;;;;;5048826;28;20393;-78
2022/07/23 02:29:52;;;;;;;11.05;4.38;;;;;;;;;;5048556;28;20048;-79
2022/07/23 02:32:39;;;;;;;7.40;4.55;;;;;;;;;;5057638;28;20053;-79
2022/07/23 02:35:25;;;;;;;6.47;4.30;;;;;;;;;;5056976;28;20041;-78
2022/07/23 02:38:11;;;;;;;5.68;3.63;;;;;;;;;;5048790;28;20041;-79
2022/07/23 02:40:56;;;;;;;4.88;3.10;;;;;;;;;;5048549;28;20049;-79
2022/07/23 02:43:41;;;;;;;6.28;2.67;;;;;;;;;;5056634;28;20041;-79
2022/07/23 02:46:27;;;;;;;3.95;2.80;;;;;;;;;;5048190;28;20041;-79
2022/07/23 02:49:12;;;;;;;3.95;2.90;;;;;;;;;;5048235;28;20033;-79
2022/07/23 02:51:58;;;;;;;5.70;2.80;;;;;;;;;;5048744;28;20041;-78
2022/07/23 02:54:43;;;;;;;5.43;3.00;;;;;;;;;;5048749;28;20048;-78
2022/07/23 02:57:32;;;;;;;5.65;3.13;;;;;;;;;;5048278;28;20041;-78
2022/07/23 03:00:18;;;;;;;5.03;3.10;;;;;;;;;;5048840;28;20045;-78
2022/07/23 03:03:03;;;;;;;7.45;3.28;;;;;;;;;;5056895;28;20478;-79
2022/07/23 03:05:50;;;;;;;7.40;3.30;;;;;;;;;;5048169;28;20045;-79
2022/07/23 03:08:35;;;;;;;9.30;3.30;;;;;;;;;;5058496;28;20045;-78
2022/07/23 03:11:21;;;;;;;6.57;3.20;;;;;;;;;;5062749;28;20044;-78
2022/07/23 03:14:08;;;;;;;4.43;3.10;;;;;;;;;;5056831;28;20041;-79
2022/07/23 03:16:54;;;;;;;5.78;3.10;;;;;;;;;;5048054;28;20041;-78
2022/07/23 03:19:41;;;;;;;4.13;2.88;;;;;;;;;;5048347;28;20045;-79
2022/07/23 03:22:28;;;;;;;7.47;2.83;;;;;;;;;;5048123;28;20041;-78
2022/07/23 03:25:13;;;;;;;4.97;3.30;;;;;;;;;;5047711;28;20489;-78
2022/07/23 03:27:59;;;;;;;6.90;3.30;;;;;;;;;;5047914;28;20037;-78
2022/07/23 03:30:48;;;;;;;7.82;3.10;;;;;;;;;;5048244;28;20044;-78
2022/07/23 03:33:33;;;;;;;7.25;3.08;;;;;;;;;;5048731;28;20060;-77
2022/07/23 03:36:19;;;;;;;5.20;3.20;;;;;;;;;;5057166;28;20048;-81
2022/07/23 03:39:05;;;;;;;4.22;3.20;;;;;;;;;;5049911;28;20486;-79
2022/07/23 03:41:50;;;;;;;7.32;3.40;;;;;;;;;;5048401;28;20041;-78
2022/07/23 03:44:36;;;;;;;4.55;3.42;;;;;;;;;;5041832;28;20049;-78
2022/07/23 03:47:22;;;;;;;5.70;3.25;;;;;;;;;;5047606;28;20486;-78
2022/07/23 03:50:09;;;;;;;8.93;3.22;;;;;;;;;;5048324;28;20378;-78
2022/07/23 03:52:55;;;;;;;9.23;3.42;;;;;;;;;;5047502;28;20037;-78
2022/07/23 03:55:40;;;;;;;6.47;2.97;;;;;;;;;;5047404;28;20045;-78
2022/07/23 03:58:25;;;;;;;10.10;4.10;;;;;;;;;;5047126;28;20041;-78
2022/07/23 04:01:11;;;;;;;6.55;4.00;;;;;;;;;;5046990;28;20036;-78
2022/07/23 04:03:57;;;;;;;8.45;3.65;;;;;;;;;;5047111;28;20041;-78
2022/07/23 04:06:42;;;;;;;6.53;3.45;;;;;;;;;;5046627;28;20049;-78
2022/07/23 04:09:27;;;;;;;5.70;3.33;;;;;;;;;;5054956;28;20045;-78
2022/07/23 04:12:14;;;;;;;11.73;4.00;;;;;;;;;;5046947;28;20041;-79
2022/07/23 04:15:00;;;;;;;8.82;4.00;;;;;;;;;;5046768;28;20041;-79
2022/07/23 04:17:46;;;;;;;8.02;4.30;;;;;;;;;;5046754;28;20053;-79
2022/07/23 04:20:32;;;;;;;16.85;4.30;;;;;;;;;;5046461;28;20409;-79
2022/07/23 04:23:20;;;;;;;11.30;4.57;;;;;;;;;;5048532;28;20053;-80
2022/07/23 04:26:06;;;;;;;10.18;3.92;;;;;;;;;;5061275;28;20049;-79
2022/07/23 04:28:52;;;;;;;5.32;3.40;;;;;;;;;;5034776;28;20390;-79
2022/07/23 04:31:37;;;;;;;7.63;4.05;;;;;;;;;;5055166;28;20485;-80
2022/07/23 04:34:23;;;;;;;10.85;4.30;;;;;;;;;;5055547;28;20036;-81
2022/07/23 04:37:08;;;;;;;11.75;4.63;;;;;;;;;;5046418;28;20044;-80
2022/07/23 04:39:55;;;;;;;12.38;4.72;;;;;;;;;;5049209;28;20037;-79
2022/07/23 04:42:42;;;;;;;13.32;4.82;;;;;;;;;;5045841;28;20041;-79
2022/07/23 04:45:28;;;;;;;13.25;5.10;;;;;;;;;;5046119;28;20041;-80
2022/07/23 04:48:13;;;;;;;11.45;4.90;;;;;;;;;;5048495;28;20045;-78
2022/07/23 04:50:59;;;;;;;8.93;5.50;;;;;;;;;;5047875;28;20041;-79
2022/07/23 04:53:48;;;;;;;13.10;6.05;;;;;;;;;;5046612;28;20053;-78
2022/07/23 04:56:33;;;;;;;12.02;5.57;;;;;;;;;;5046496;28;20049;-78
2022/07/23 04:59:19;;;;;;;13.60;6.45;;;;;;;;;;5048222;28;20037;-78
2022/07/23 05:02:08;;;;;;;13.07;6.00;;;;;;;;;;5047593;28;20040;-76
2022/07/23 05:04:53;;;;;;;23.40;6.50;;;;;;;;;;5046417;28;20502;-82
2022/07/23 05:07:39;;;;;;;16.60;5.88;;;;;;;;;;5046204;28;20071;-78
2022/07/23 05:10:26;;;;;;;12.35;6.40;;;;;;;;;;5054011;28;20048;-80
2022/07/23 05:13:11;;;;;;;16.98;6.40;;;;;;;;;;5046297;28;20044;-81
2022/07/23 05:15:56;;;;;;;23.10;8.48;;;;;;;;;;5051268;28;20045;-80
2022/07/23 05:18:43;;;;;;;19.33;8.35;;;;;;;;;;5047447;28;20049;-78
2022/07/23 05:21:29;;;;;;;17.77;8.23;;;;;;;;;;5045820;28;20044;-78
2022/07/23 05:24:14;;;;;;;12.32;6.75;;;;;;;;;;5049992;28;20048;-80
2022/07/23 05:27:00;;;;;;;13.35;7.55;;;;;;;;;;5055044;28;20037;-78
2022/07/23 05:29:45;;;;;;;16.73;6.05;;;;;;;;;;5064598;28;20037;-79
2022/07/23 05:32:32;;;;;;;10.13;5.72;;;;;;;;;;5046514;28;20048;-83
2022/07/23 05:35:26;;;;;;;7.72;5.03;;;;;;;;;;5045958;28;20052;-81
2022/07/23 05:38:26;;;;;;;19.45;5.53;;;;;;;;;;5045207;28;20040;-81
2022/07/23 05:41:14;;;;;;;10.40;4.47;;;;;;;;;;5045539;28;20049;-81
2022/07/23 05:43:59;;;;;;;10.05;5.38;;;;;;;;;;5039167;28;20045;-81
2022/07/23 05:46:46;;;;;;;13.30;5.07;;;;;;;;;;5045235;28;20041;-79
2022/07/23 05:49:38;;;;;;;10.95;5.28;;;;;;;;;;5048105;28;20041;-79
2022/07/23 05:52:23;;;;;;;12.65;5.20;;;;;;;;;;5057781;28;20037;-77
2022/07/23 05:55:37;;;;;;;7.38;4.60;;;;;;;;;;5050262;28;20048;-75
2022/07/23 05:58:23;;;;;;;10.63;4.53;;;;;;;;;;5049342;28;20053;-78
2022/07/23 06:01:08;;;;;;;9.52;4.43;;;;;;;;;;5049695;28;20033;-81
2022/07/23 06:04:09;;;;;;;11.10;4.40;;;;;;;;;;5049421;28;20037;-77
2022/07/23 06:06:57;;;;;;;13.50;4.90;;;;;;;;;;5048522;28;20052;-77
2022/07/23 06:09:42;;;;;;;13.55;4.90;;;;;;;;;;5048915;28;20045;-78
2022/07/23 06:12:28;;;;;;;8.88;4.93;;;;;;;;;;5048774;28;20045;-77
2022/07/23 06:15:14;;;;;;;15.32;5.35;;;;;;;;;;5048663;28;20048;-78
2022/07/23 06:17:59;;;;;;;12.60;5.43;;;;;;;;;;5048663;28;20049;-77
2022/07/23 06:20:45;;;;;;;10.38;4.72;;;;;;;;;;5048735;28;20048;-76
2022/07/23 06:23:30;;;;;;;17.17;4.82;;;;;;;;;;5048705;28;20390;-76
2022/07/23 06:26:16;;;;;;;9.70;4.68;;;;;;;;;;5049268;28;20037;-78
2022/07/23 06:29:01;;;;;;;8.90;4.82;;;;;;;;;;5057161;28;20045;-78
2022/07/23 06:31:49;;;;;;;7.18;4.13;;;;;;;;;;5048718;28;20394;-76
2022/07/23 06:34:35;;;;;;;18.05;4.75;;;;;;;;;;5057004;28;20485;-77
2022/07/23 06:37:20;;;;;;;13.88;4.90;;;;;;;;;;5057420;28;20467;-76
2022/07/23 06:40:06;;;;;;;11.63;4.50;;;;;;;;;;5048770;28;20033;-76
2022/07/23 06:42:54;;;;;;;10.77;4.22;;;;;;;;;;5047982;28;20045;-77
2022/07/23 06:45:41;;;;;;;17.15;4.72;;;;;;;;;;5048804;28;20040;-77
2022/07/23 06:48:27;;;;;;;11.00;4.57;;;;;;;;;;5048703;28;20049;-77
2022/07/23 06:51:13;;;;;;;10.52;4.40;;;;;;;;;;5057447;28;20040;-76
2022/07/23 06:53:59;;;;;;;10.38;4.32;;;;;;;;;;5056975;28;20045;-78
2022/07/23 06:56:44;;;;;;;13.07;4.57;;;;;;;;;;5063122;28;20041;-77
2022/07/23 06:59:29;;;;;;;11.30;4.43;;;;;;;;;;5047752;28;20041;-75
2022/07/23 07:02:14;;;;;;;11.23;4.25;;;;;;;;;;5047702;28;20045;-79
2022/07/23 07:05:00;;;;;;;7.68;4.55;;;;;;;;;;5048045;28;20045;-78
2022/07/23 07:07:46;;;;;;;10.57;3.92;;;;;;;;;;5056474;28;20045;-77
2022/07/23 07:10:32;;;;;;;8.38;4.10;;;;;;;;;;5056209;28;20057;-78
2022/07/23 07:13:17;;;;;;;11.23;4.45;;;;;;;;;;5063030;28;20044;-78
2022/07/23 07:16:03;;;;;;;12.90;4.43;;;;;;;;;;5056188;28;20402;-77
2022/07/23 07:18:48;;;;;;;9.18;4.55;;;;;;;;;;5063393;28;20051;-77
2022/07/23 07:21:34;;;;;;;14.88;4.40;;;;;;;;;;5056039;28;20040;-77
2022/07/23 07:24:19;;;;;;;10.73;4.13;;;;;;;;;;5062868;28;20041;-78
2022/07/23 07:27:05;;;;;;;14.25;4.55;;;;;;;;;;5056296;28;20066;-77
2022/07/23 07:29:50;;;;;;;9.35;4.35;;;;;;;;;;5062966;28;20037;-77
2022/07/23 07:32:36;;;;;;;8.00;4.57;;;;;;;;;;5062686;28;20048;-78
2022/07/23 07:35:22;;;;;;;17.33;4.65;;;;;;;;;;5055100;28;20406;-77
2022/07/23 07:38:07;;;;;;;9.25;4.72;;;;;;;;;;5053787;28;20045;-77
2022/07/23 07:40:53;;;;;;;12.43;4.18;;;;;;;;;;5053781;28;20048;-77
2022/07/23 07:43:38;;;;;;;11.20;3.90;;;;;;;;;;5053193;28;20377;-79
2022/07/23 07:46:27;;;;;;;13.20;4.28;;;;;;;;;;5045325;28;20405;-80
2022/07/23 07:49:13;;;;;;;9.25;4.55;;;;;;;;;;5061875;28;20037;-77
2022/07/23 07:51:58;;;;;;;8.93;4.28;;;;;;;;;;5067845;28;20045;-77
2022/07/23 07:54:44;;;;;;;10.40;4.38;;;;;;;;;;5061768;28;20041;-79
2022/07/23 07:57:29;;;;;;;8.88;4.35;;;;;;;;;;5055168;28;20044;-77
2022/07/23 08:00:15;;;;;;;15.00;3.83;;;;;;;;;;5054570;28;20041;-78
2022/07/23 08:03:00;;;;;;;9.52;4.00;;;;;;;;;;5054777;28;20037;-78
2022/07/23 08:05:46;;;;;;;6.85;4.10;;;;;;;;;;5061123;28;20044;-77
2022/07/23 08:08:31;;;;;;;7.95;4.22;;;;;;;;;;5054999;28;20040;-77
2022/07/23 08:11:17;;;;;;;10.90;4.13;;;;;;;;;;5061339;28;20044;-77
2022/07/23 08:14:03;;;;;;;14.70;4.20;;;;;;;;;;5055319;28;20041;-75
2022/07/23 08:16:48;;;;;;;7.45;4.03;;;;;;;;;;5055318;28;20037;-76
2022/07/23 08:19:34;;;;;;;10.10;3.83;;;;;;;;;;5054909;28;20049;-77
2022/07/23 08:22:21;;;;;;;10.00;4.15;;;;;;;;;;5055116;28;20040;-78
2022/07/23 08:25:06;;;;;;;7.32;3.92;;;;;;;;;;5061288;28;20389;-78
2022/07/23 08:27:52;;;;;;;9.68;4.32;;;;;;;;;;5055160;28;20386;-77
2022/07/23 08:30:39;;;;;;;6.70;3.97;;;;;;;;;;5061326;28;20486;-78
2022/07/23 08:33:23;;;;;;;9.10;3.70;;;;;;;;;;5061421;28;20045;-78
2022/07/23 08:36:09;;;;;;;9.95;4.40;;;;;;;;;;5054584;28;20048;-78
2022/07/23 08:38:54;;;;;;;7.47;4.05;;;;;;;;;;5061775;28;20056;-77
2022/07/23 08:41:41;;;;;;;13.77;4.53;;;;;;;;;;5054743;28;20045;-77
2022/07/23 08:44:27;;;;;;;8.25;4.25;;;;;;;;;;5055247;28;20049;-76
2022/07/23 08:47:15;;;;;;;10.13;4.70;;;;;;;;;;5053995;28;20041;-76
2022/07/23 08:50:01;;;;;;;12.75;4.60;;;;;;;;;;5060846;28;20048;-77
2022/07/23 08:52:48;;;;;;;9.57;4.15;;;;;;;;;;5053959;28;20478;-77
2022/07/23 08:55:34;;;;;;;9.25;4.05;;;;;;;;;;5061077;28;20401;-77
2022/07/23 08:58:20;;;;;;;10.80;4.38;;;;;;;;;;5054373;28;20045;-77
2022/07/23 09:01:06;;;;;;;11.90;4.50;;;;;;;;;;5055506;28;20045;-78
2022/07/23 09:03:51;;;;;;;6.75;4.07;;;;;;;;;;5054310;28;20466;-77
2022/07/23 09:06:39;;;;;;;7.20;4.15;;;;;;;;;;5039153;28;20413;-77
2022/07/23 09:09:29;;;;;;;10.32;4.22;;;;;;;;;;5055015;28;20049;-76
2022/07/23 09:12:15;;;;;;;9.63;3.80;;;;;;;;;;5054319;28;20045;-76
2022/07/23 09:15:06;;;;;;;10.88;4.18;;;;;;;;;;5054209;28;20048;-77
2022/07/23 09:17:51;;;;;;;11.73;4.00;;;;;;;;;;5054484;28;20045;-77
2022/07/23 09:20:38;;;;;;;9.95;4.03;;;;;;;;;;5054424;28;20041;-78
2022/07/23 09:23:37;;;;;;;12.32;4.15;;;;;;;;;;5060084;28;20045;-76
2022/07/23 09:26:33;;;;;;;7.47;4.07;;;;;;;;;;5045376;28;20053;-76
2022/07/23 09:29:22;;;;;;;10.20;3.55;;;;;;;;;;5060394;28;20045;-77
2022/07/23 09:32:13;;;;;;;6.25;3.67;;;;;;;;;;5053679;28;20045;-77
2022/07/23 09:34:58;;;;;;;12.38;3.60;;;;;;;;;;5054386;28;20037;-77
2022/07/23 09:38:01;;;;;;;13.60;3.70;;;;;;;;;;5053991;28;20051;-77
2022/07/23 09:41:04;;;;;;;8.93;3.75;;;;;;;;;;5060222;28;20044;-79
2022/07/23 09:43:56;;;;;;;5.03;3.50;;;;;;;;;;5053179;28;20041;-78
2022/07/23 09:46:43;;;;;;;4.88;3.80;;;;;;;;;;5053409;28;20291;-78
2022/07/23 09:49:29;;;;;;;8.85;3.63;;;;;;;;;;5053757;28;20040;-76
2022/07/23 09:52:26;;;;;;;8.43;3.70;;;;;;;;;;5053918;28;20425;-75
2022/07/23 09:55:12;;;;;;;13.50;3.42;;;;;;;;;;5060206;28;20053;-75
2022/07/23 09:57:57;;;;;;;10.52;3.67;;;;;;;;;;5059987;28;20049;-77
2022/07/23 10:00:44;;;;;;;6.82;3.25;;;;;;;;;;5053669;28;20041;-76
2022/07/23 10:03:30;;;;;;;9.35;2.95;;;;;;;;;;5060287;28;20049;-74
2022/07/23 10:06:37;;;;;;;8.18;3.10;;;;;;;;;;5049636;28;20473;-76
2022/07/23 10:09:44;;;;;;;9.32;3.33;;;;;;;;;;5037862;28;20041;-76
2022/07/23 10:13:03;;;;;;;7.18;3.55;;;;;;;;;;5023191;28;20425;-76
2022/07/23 10:15:50;;;;;;;8.98;3.75;;;;;;;;;;5057006;28;20041;-77
2022/07/23 10:18:35;;;;;;;7.55;2.83;;;;;;;;;;5062061;28;20045;-76
2022/07/23 10:21:35;;;;;;;5.40;3.15;;;;;;;;;;5059544;28;20390;-75
2022/07/23 10:24:45;;;;;;;9.88;3.20;;;;;;;;;;5052693;28;20107;-77
2022/07/23 10:27:56;;;;;;;7.90;3.20;;;;;;;;;;5053198;28;20052;-75
2022/07/23 10:30:51;;;;;;;5.63;3.00;;;;;;;;;;5059400;28;20049;-74
2022/07/23 10:33:45;;;;;;;7.63;3.00;;;;;;;;;;5052865;28;20049;-77
2022/07/23 10:36:50;;;;;;;6.38;2.70;;;;;;;;;;5055092;28;20056;-76
2022/07/23 10:39:37;;;;;;;6.25;2.92;;;;;;;;;;5063436;28;20490;-76
2022/07/23 10:42:33;;;;;;;5.28;2.90;;;;;;;;;;5056412;28;20049;-76
2022/07/23 10:45:28;;;;;;;7.82;2.97;;;;;;;;;;5063167;28;20049;-76
2022/07/23 10:48:22;;;;;;;6.70;2.70;;;;;;;;;;5056447;28;20052;-75
2022/07/23 10:51:11;;;;;;;6.10;2.90;;;;;;;;;;5056374;28;20397;-76
2022/07/23 10:53:56;;;;;;;5.95;2.70;;;;;;;;;;5056390;28;20501;-77
2022/07/23 10:56:57;;;;;;;8.05;3.13;;;;;;;;;;5056095;28;20477;-76
2022/07/23 11:00:00;;;;;;;10.32;3.20;;;;;;;;;;5056734;28;20063;-76
2022/07/23 11:02:47;;;;;;;6.38;2.67;;;;;;;;;;5055792;28;20045;-77
2022/07/23 11:05:42;;;;;;;6.57;3.10;;;;;;;;;;5056329;28;20037;-76
2022/07/23 11:08:28;;;;;;;6.05;3.15;;;;;;;;;;5056209;28;20398;-77
2022/07/23 11:11:13;;;;;;;8.15;3.00;;;;;;;;;;5055478;28;20045;-77
2022/07/23 11:13:58;;;;;;;5.85;3.15;;;;;;;;;;5062681;28;20049;-77
2022/07/23 11:16:48;;;;;;;10.88;3.50;;;;;;;;;;5062105;28;20057;-76
2022/07/23 11:20:07;;;;;;;7.28;3.47;;;;;;;;;;5056114;28;20040;-77
2022/07/23 11:22:57;;;;;;;8.00;3.20;;;;;;;;;;5055749;28;20049;-77
2022/07/23 11:25:44;;;;;;;5.35;2.80;;;;;;;;;;5055811;28;20041;-77
2022/07/23 11:28:30;;;;;;;6.43;3.05;;;;;;;;;;5055939;28;20049;-77
2022/07/23 11:31:18;;;;;;;6.68;3.45;;;;;;;;;;5055675;28;20041;-78
2022/07/23 11:34:38;;;;;;;8.43;3.67;;;;;;;;;;5055624;28;20053;-79
2022/07/23 11:37:26;;;;;;;6.43;3.30;;;;;;;;;;5062185;28;20049;-78
2022/07/23 11:40:15;;;;;;;8.85;3.40;;;;;;;;;;5055917;28;20049;-79
2022/07/23 11:43:02;;;;;;;5.57;3.60;;;;;;;;;;5060727;28;20049;-77
2022/07/23 11:45:50;;;;;;;6.18;3.50;;;;;;;;;;5055266;28;20037;-78
2022/07/23 11:48:36;;;;;;;7.35;3.50;;;;;;;;;;5055442;28;20041;-77
2022/07/23 11:51:31;;;;;;;5.57;3.60;;;;;;;;;;5062590;28;20057;-75
2022/07/23 11:54:17;;;;;;;8.15;3.65;;;;;;;;;;5055311;28;20037;-76
2022/07/23 11:57:03;;;;;;;8.68;3.90;;;;;;;;;;5062103;28;20053;-76
2022/07/23 11:59:52;;;;;;;8.90;3.50;;;;;;;;;;5055241;28;20041;-77
2022/07/23 12:02:46;;;;;;;5.88;3.63;;;;;;;;;;5061895;28;20045;-77
2022/07/23 12:05:35;;;;;;;7.70;3.75;;;;;;;;;;5061774;28;20425;-77
2022/07/23 12:08:20;;;;;;;7.65;3.97;;;;;;;;;;5061721;28;20485;-76
2022/07/23 12:11:06;;;;;;;6.03;3.55;;;;;;;;;;5061671;28;20417;-77
2022/07/23 12:13:57;;;;;;;7.38;3.78;;;;;;;;;;5061705;28;20048;-77
2022/07/23 12:16:43;;;;;;;7.30;3.60;;;;;;;;;;5054910;28;20045;-77
2022/07/23 12:19:28;;;;;;;6.65;3.75;;;;;;;;;;5055322;28;20037;-77
2022/07/23 12:22:16;;;;;;;5.82;3.90;;;;;;;;;;5061435;28;20394;-77
2022/07/23 12:25:09;;;;;;;10.07;3.90;;;;;;;;;;5054772;28;20041;-77
2022/07/23 12:28:13;;;;;;;5.30;3.58;;;;;;;;;;5054154;28;20045;-78
2022/07/23 12:30:59;;;;;;;8.65;3.75;;;;;;;;;;5061229;28;20049;-78
2022/07/23 12:33:44;;;;;;;5.93;3.90;;;;;;;;;;5046049;28;20040;-77
2022/07/23 12:36:42;;;;;;;8.48;3.90;;;;;;;;;;5058732;28;20032;-79
2022/07/23 12:39:32;;;;;;;7.15;4.15;;;;;;;;;;5083059;28;20041;-79
2022/07/23 12:42:18;;;;;;;7.10;4.43;;;;;;;;;;5060995;28;20486;-77
2022/07/23 12:45:11;;;;;;;11.05;3.80;;;;;;;;;;5060983;28;20085;-77
2022/07/23 12:48:04;;;;;;;6.78;4.10;;;;;;;;;;5053983;28;20041;-77
2022/07/23 12:51:02;;;;;;;8.85;4.18;;;;;;;;;;5054455;28;20044;-77
2022/07/23 12:53:54;;;;;;;8.63;4.18;;;;;;;;;;5054223;28;20049;-78
2022/07/23 12:56:44;;;;;;;10.03;4.23;;;;;;;;;;5060636;28;20044;-78
2022/07/23 12:59:31;;;;;;;8.80;3.83;;;;;;;;;;5053692;28;20287;-77
2022/07/23 13:02:17;;;;;;;8.65;3.58;;;;;;;;;;5054270;28;20465;-77
2022/07/23 13:05:02;;;;;;;7.97;3.58;;;;;;;;;;5054198;28;20045;-77
2022/07/23 13:07:48;;;;;;;12.77;4.30;;;;;;;;;;5060331;28;20049;-78
2022/07/23 13:10:33;;;;;;;7.72;3.90;;;;;;;;;;5053892;28;20048;-76
2022/07/23 13:13:24;;;;;;;6.40;4.22;;;;;;;;;;5054016;28;20041;-77
2022/07/23 13:16:09;;;;;;;5.35;4.00;;;;;;;;;;5053762;28;20041;-79
2022/07/23 13:18:56;;;;;;;6.70;3.97;;;;;;;;;;5053892;28;20041;-76
2022/07/23 13:21:42;;;;;;;5.13;4.10;;;;;;;;;;5053723;28;20397;-76
2022/07/23 13:24:27;;;;;;;7.70;3.97;;;;;;;;;;5053638;28;20049;-77
2022/07/23 13:27:12;;;;;;;8.50;4.40;;;;;;;;;;5053586;28;20045;-77
2022/07/23 13:29:58;;;;;;;4.93;3.83;;;;;;;;;;5053963;28;20393;-76
2022/07/23 13:32:44;;;;;;;7.28;3.95;;;;;;;;;;5060590;28;20477;-77
2022/07/23 13:35:29;;;;;;;11.27;4.10;;;;;;;;;;5053515;28;20045;-76
2022/07/23 13:38:15;;;;;;;8.20;4.13;;;;;;;;;;5060070;28;20049;-79
2022/07/23 13:41:02;;;;;;;5.72;3.80;;;;;;;;;;5053592;28;20052;-79
2022/07/23 13:43:49;;;;;;;5.68;4.30;;;;;;;;;;5053288;28;20409;-78
2022/07/23 13:46:35;;;;;;;7.07;4.00;;;;;;;;;;5053485;28;20040;-77
2022/07/23 13:49:20;;;;;;;6.47;4.10;;;;;;;;;;5053327;28;20048;-77
2022/07/23 13:52:07;;;;;;;13.02;4.57;;;;;;;;;;5059657;28;20048;-77
2022/07/23 13:54:53;;;;;;;6.63;3.88;;;;;;;;;;5053446;28;20045;-77
2022/07/23 13:57:38;;;;;;;7.22;3.95;;;;;;;;;;5053497;28;20041;-78
2022/07/23 14:00:24;;;;;;;7.55;4.25;;;;;;;;;;5053260;28;20048;-78
2022/07/23 14:03:09;;;;;;;7.47;4.20;;;;;;;;;;5059925;28;20045;-77
2022/07/23 14:05:55;;;;;;;11.68;4.30;;;;;;;;;;5038022;28;20045;-77
2022/07/23 14:08:40;;;;;;;5.88;3.95;;;;;;;;;;5053107;28;20053;-77
2022/07/23 14:11:26;;;;;;;6.32;4.10;;;;;;;;;;5057306;28;20510;-76
2022/07/23 14:14:12;;;;;;;7.35;4.45;;;;;;;;;;5063649;28;20057;-80
2022/07/23 14:16:57;;;;;;;4.63;3.83;;;;;;;;;;5057184;28;20041;-76
2022/07/23 14:19:43;;;;;;;7.75;4.10;;;;;;;;;;5063534;28;20041;-75
2022/07/23 14:22:29;;;;;;;8.90;4.20;;;;;;;;;;5063653;28;20049;-75
2022/07/23 14:25:16;;;;;;;8.55;4.10;;;;;;;;;;5057490;28;20045;-77
2022/07/23 14:28:01;;;;;;;12.70;4.47;;;;;;;;;;5056525;28;20049;-77
2022/07/23 14:30:47;;;;;;;9.27;4.18;;;;;;;;;;5063729;28;20040;-76
2022/07/23 14:33:33;;;;;;;6.50;4.25;;;;;;;;;;5056830;28;20478;-76
2022/07/23 14:36:18;;;;;;;11.15;4.30;;;;;;;;;;5056704;28;20053;-76
2022/07/23 14:39:04;;;;;;;6.75;4.78;;;;;;;;;;5063440;28;20478;-76
2022/07/23 14:41:49;;;;;;;5.25;4.10;;;;;;;;;;5063223;28;20402;-78
2022/07/23 14:44:36;;;;;;;8.35;4.25;;;;;;;;;;5056171;28;20049;-76
2022/07/23 14:47:22;;;;;;;6.53;4.18;;;;;;;;;;5058215;28;20049;-77
2022/07/23 14:50:08;;;;;;;10.10;4.72;;;;;;;;;;5056647;28;20041;-76
2022/07/23 14:52:53;;;;;;;8.48;4.07;;;;;;;;;;5056536;28;20486;-76
2022/07/23 14:55:38;;;;;;;6.18;4.03;;;;;;;;;;5060516;28;20045;-79
2022/07/23 14:58:24;;;;;;;9.20;4.50;;;;;;;;;;5058775;28;20041;-76
2022/07/23 15:01:10;;;;;;;9.50;4.60;;;;;;;;;;5056360;28;20044;-78
2022/07/23 15:03:55;;;;;;;7.65;4.30;;;;;;;;;;5056215;28;20487;-75
2022/07/23 15:06:41;;;;;;;8.27;4.50;;;;;;;;;;5062850;28;20041;-76
2022/07/23 15:09:27;;;;;;;7.13;4.13;;;;;;;;;;5063885;28;20052;-79
2022/07/23 15:12:12;;;;;;;6.72;4.20;;;;;;;;;;5063756;28;20494;-77
2022/07/23 15:14:57;;;;;;;8.38;4.47;;;;;;;;;;5063480;28;20539;-77
2022/07/23 15:17:46;;;;;;;6.97;4.18;;;;;;;;;;5056901;28;20036;-77
2022/07/23 15:20:31;;;;;;;7.15;4.07;;;;;;;;;;5063379;28;20044;-76
2022/07/23 15:23:27;;;;;;;9.27;4.63;;;;;;;;;;5063634;28;20041;-77
2022/07/23 15:26:23;;;;;;;6.40;4.40;;;;;;;;;;5048625;28;20049;-76
2022/07/23 15:29:14;;;;;;;8.07;4.40;;;;;;;;;;5047586;28;20045;-77
2022/07/23 15:31:59;;;;;;;6.72;4.32;;;;;;;;;;5055922;28;20045;-77
2022/07/23 15:34:43;;;;;;;8.02;4.30;;;;;;;;;;5062405;28;20045;-77
2022/07/23 15:37:29;;;;;;;8.02;4.00;;;;;;;;;;5055333;28;20037;-77
2022/07/23 15:40:15;;;;;;;9.38;4.55;;;;;;;;;;5055404;28;20053;-76
2022/07/23 15:43:02;;;;;;;9.95;4.47;;;;;;;;;;5055066;28;20041;-76
2022/07/23 15:45:48;;;;;;;7.15;4.07;;;;;;;;;;5055453;28;20053;-77
2022/07/23 15:48:36;;;;;;;8.85;4.68;;;;;;;;;;5055054;28;20045;-79
2022/07/23 15:51:21;;;;;;;7.13;4.13;;;;;;;;;;5061946;28;20041;-77
2022/07/23 15:54:07;;;;;;;7.20;4.75;;;;;;;;;;5056182;28;20053;-80
2022/07/23 15:56:52;;;;;;;8.07;4.15;;;;;;;;;;5061724;28;20049;-77
2022/07/23 15:59:38;;;;;;;8.20;4.00;;;;;;;;;;5061854;28;20041;-76
2022/07/23 16:02:23;;;;;;;7.82;4.65;;;;;;;;;;5055482;28;20041;-76
2022/07/23 16:05:09;;;;;;;8.95;4.85;;;;;;;;;;5054948;28;20111;-76
2022/07/23 16:07:54;;;;;;;6.15;4.30;;;;;;;;;;5039932;28;20045;-78
2022/07/23 16:10:39;;;;;;;7.30;4.47;;;;;;;;;;5054792;28;20040;-78
2022/07/23 16:13:26;;;;;;;7.45;4.30;;;;;;;;;;5060898;28;20040;-77
2022/07/23 16:16:11;;;;;;;5.78;4.43;;;;;;;;;;5054611;28;20048;-76
2022/07/23 16:18:57;;;;;;;7.05;4.35;;;;;;;;;;5054824;28;20405;-76
2022/07/23 16:21:43;;;;;;;7.63;4.10;;;;;;;;;;5061363;28;20044;-76
2022/07/23 16:24:29;;;;;;;5.90;4.20;;;;;;;;;;5054518;28;20052;-79
2022/07/23 16:27:15;;;;;;;10.70;4.30;;;;;;;;;;5054397;28;20045;-78
2022/07/23 16:30:00;;;;;;;9.70;4.55;;;;;;;;;;5061516;28;20034;-78
2022/07/23 16:32:46;;;;;;;10.45;4.43;;;;;;;;;;5053691;28;20049;-76
2022/07/23 16:35:31;;;;;;;5.10;4.28;;;;;;;;;;5061255;28;20049;-77
2022/07/23 16:38:17;;;;;;;7.05;4.43;;;;;;;;;;5054655;28;20049;-77
2022/07/23 16:41:04;;;;;;;6.82;4.07;;;;;;;;;;5054569;28;20041;-76